sensor_id;sensor_type;location;lat;lon;timestamp;P1;durP1;ratioP1;P2;durP2;ratioP2
41984;SDS011;28319;48.116;10.818;2023-04-02T00:05:46;0.70;;;0.40;;
41984;SDS011;28319;48.116;10.818;2023-04-02T00:10:52;0.20;;;0.20;;
41984;SDS011;28319;48.116;10.818;2023-04-02T00:15:56;0.40;;;0.33;;
41984;SDS011;28319;48.116;10.818;2023-04-02T00:21:04;0.40;;;0.40;;
41984;SDS011;28319;48.116;10.818;2023-04-02T00:26:21;0.97;;;0.60;;
41984;SDS011;28319;48.116;10.818;2023-04-02T00:31:29;0.93;;;0.37;;
41984;SDS011;28319;48.116;10.818;2023-04-02T00:36:35;0.50;;;0.50;;
41984;SDS011;28319;48.116;10.818;2023-04-02T00:41:38;0.60;;;0.60;;
41984;SDS011;28319;48.116;10.818;2023-04-02T00:46:45;0.50;;;0.50;;
41984;SDS011;28319;48.116;10.818;2023-04-02T00:51:52;1.07;;;0.60;;
41984;SDS011;28319;48.116;10.818;2023-04-02T00:56:57;0.93;;;0.50;;
41984;SDS011;28319;48.116;10.818;2023-04-02T01:02:00;0.43;;;0.40;;
41984;SDS011;28319;48.116;10.818;2023-04-02T01:07:31;0.77;;;0.77;;
41984;SDS011;28319;48.116;10.818;2023-04-02T01:12:48;0.53;;;0.33;;
41984;SDS011;28319;48.116;10.818;2023-04-02T01:18:04;0.60;;;0.40;;
41984;SDS011;28319;48.116;10.818;2023-04-02T01:23:20;0.30;;;0.30;;
41984;SDS011;28319;48.116;10.818;2023-04-02T01:28:27;0.60;;;0.60;;
41984;SDS011;28319;48.116;10.818;2023-04-02T01:33:39;0.50;;;0.50;;
41984;SDS011;28319;48.116;10.818;2023-04-02T01:38:43;0.50;;;0.50;;
41984;SDS011;28319;48.116;10.818;2023-04-02T01:43:52;0.63;;;0.53;;
41984;SDS011;28319;48.116;10.818;2023-04-02T01:49:01;0.67;;;0.60;;
41984;SDS011;28319;48.116;10.818;2023-04-02T01:54:10;0.20;;;0.20;;
41984;SDS011;28319;48.116;10.818;2023-04-02T01:59:16;0.50;;;0.50;;
41984;SDS011;28319;48.116;10.818;2023-04-02T02:04:22;1.27;;;0.30;;
41984;SDS011;28319;48.116;10.818;2023-04-02T02:09:26;0.60;;;0.60;;
41984;SDS011;28319;48.116;10.818;2023-04-02T02:14:30;0.50;;;0.50;;
41984;SDS011;28319;48.116;10.818;2023-04-02T02:19:35;0.50;;;0.50;;
41984;SDS011;28319;48.116;10.818;2023-04-02T02:24:41;0.43;;;0.43;;
41984;SDS011;28319;48.116;10.818;2023-04-02T02:29:45;0.60;;;0.60;;
41984;SDS011;28319;48.116;10.818;2023-04-02T02:34:53;0.30;;;0.30;;
41984;SDS011;28319;48.116;10.818;2023-04-02T02:40:02;0.70;;;0.70;;
41984;SDS011;28319;48.116;10.818;2023-04-02T02:45:11;0.80;;;0.70;;
41984;SDS011;28319;48.116;10.818;2023-04-02T02:50:20;0.70;;;0.70;;
41984;SDS011;28319;48.116;10.818;2023-04-02T02:55:25;0.50;;;0.40;;
41984;SDS011;28319;48.116;10.818;2023-04-02T03:00:31;0.40;;;0.40;;
41984;SDS011;28319;48.116;10.818;2023-04-02T03:05:36;1.03;;;0.70;;
41984;SDS011;28319;48.116;10.818;2023-04-02T03:10:41;0.73;;;0.73;;
41984;SDS011;28319;48.116;10.818;2023-04-02T03:15:53;0.40;;;0.40;;
41984;SDS011;28319;48.116;10.818;2023-04-02T03:21:04;0.77;;;0.60;;
41984;SDS011;28319;48.116;10.818;2023-04-02T03:26:17;0.50;;;0.50;;
41984;SDS011;28319;48.116;10.818;2023-04-02T03:31:22;0.40;;;0.40;;
41984;SDS011;28319;48.116;10.818;2023-04-02T03:36:33;2.00;;;0.70;;
41984;SDS011;28319;48.116;10.818;2023-04-02T03:41:43;0.60;;;0.60;;
41984;SDS011;28319;48.116;10.818;2023-04-02T03:46:48;0.50;;;0.37;;
41984;SDS011;28319;48.116;10.818;2023-04-02T03:51:58;0.70;;;0.70;;
41984;SDS011;28319;48.116;10.818;2023-04-02T03:57:04;0.33;;;0.33;;
41984;SDS011;28319;48.116;10.818;2023-04-02T04:02:17;0.50;;;0.50;;
41984;SDS011;28319;48.116;10.818;2023-04-02T04:07:28;1.90;;;0.40;;
41984;SDS011;28319;48.116;10.818;2023-04-02T04:12:33;0.50;;;0.50;;
41984;SDS011;28319;48.116;10.818;2023-04-02T04:17:41;0.33;;;0.33;;
41984;SDS011;28319;48.116;10.818;2023-04-02T04:22:55;1.03;;;0.57;;
41984;SDS011;28319;48.116;10.818;2023-04-02T04:28:12;0.23;;;0.23;;
41984;SDS011;28319;48.116;10.818;2023-04-02T04:33:24;0.30;;;0.30;;
41984;SDS011;28319;48.116;10.818;2023-04-02T04:38:40;0.40;;;0.40;;
41984;SDS011;28319;48.116;10.818;2023-04-02T04:43:48;0.47;;;0.47;;
41984;SDS011;28319;48.116;10.818;2023-04-02T04:48:56;0.50;;;0.50;;
41984;SDS011;28319;48.116;10.818;2023-04-02T04:54:09;0.60;;;0.60;;
41984;SDS011;28319;48.116;10.818;2023-04-02T04:59:14;0.47;;;0.47;;
41984;SDS011;28319;48.116;10.818;2023-04-02T05:04:22;0.80;;;0.50;;
41984;SDS011;28319;48.116;10.818;2023-04-02T05:09:31;0.43;;;0.43;;
41984;SDS011;28319;48.116;10.818;2023-04-02T05:14:39;0.50;;;0.40;;
41984;SDS011;28319;48.116;10.818;2023-04-02T05:19:48;1.20;;;0.70;;
41984;SDS011;28319;48.116;10.818;2023-04-02T05:24:57;1.10;;;1.10;;
41984;SDS011;28319;48.116;10.818;2023-04-02T05:30:09;0.63;;;0.63;;
41984;SDS011;28319;48.116;10.818;2023-04-02T05:35:34;0.57;;;0.57;;
41984;SDS011;28319;48.116;10.818;2023-04-02T05:40:43;0.97;;;0.80;;
41984;SDS011;28319;48.116;10.818;2023-04-02T05:45:50;1.33;;;1.23;;
41984;SDS011;28319;48.116;10.818;2023-04-02T05:50:55;3.47;;;1.87;;
41984;SDS011;28319;48.116;10.818;2023-04-02T05:56:01;3.20;;;1.10;;
41984;SDS011;28319;48.116;10.818;2023-04-02T06:01:13;1.10;;;1.10;;
41984;SDS011;28319;48.116;10.818;2023-04-02T06:06:23;0.77;;;0.77;;
41984;SDS011;28319;48.116;10.818;2023-04-02T06:11:35;0.77;;;0.77;;
41984;SDS011;28319;48.116;10.818;2023-04-02T06:16:42;0.80;;;0.80;;
41984;SDS011;28319;48.116;10.818;2023-04-02T06:21:46;1.07;;;0.90;;
41984;SDS011;28319;48.116;10.818;2023-04-02T06:26:52;1.70;;;1.17;;
41984;SDS011;28319;48.116;10.818;2023-04-02T06:31:58;1.43;;;0.90;;
41984;SDS011;28319;48.116;10.818;2023-04-02T06:37:02;1.50;;;0.83;;
41984;SDS011;28319;48.116;10.818;2023-04-02T06:42:14;1.27;;;0.70;;
41984;SDS011;28319;48.116;10.818;2023-04-02T06:47:23;1.60;;;0.93;;
41984;SDS011;28319;48.116;10.818;2023-04-02T06:52:32;0.90;;;0.90;;
41984;SDS011;28319;48.116;10.818;2023-04-02T06:57:38;0.73;;;0.73;;
41984;SDS011;28319;48.116;10.818;2023-04-02T07:02:41;1.17;;;0.73;;
41984;SDS011;28319;48.116;10.818;2023-04-02T07:07:43;1.37;;;0.83;;
41984;SDS011;28319;48.116;10.818;2023-04-02T07:12:47;2.20;;;0.90;;
41984;SDS011;28319;48.116;10.818;2023-04-02T07:17:49;1.77;;;0.77;;
41984;SDS011;28319;48.116;10.818;2023-04-02T07:22:53;1.43;;;0.90;;
41984;SDS011;28319;48.116;10.818;2023-04-02T07:27:57;1.23;;;0.80;;
41984;SDS011;28319;48.116;10.818;2023-04-02T07:33:00;0.50;;;0.50;;
41984;SDS011;28319;48.116;10.818;2023-04-02T07:38:02;1.00;;;0.97;;
41984;SDS011;28319;48.116;10.818;2023-04-02T07:43:06;1.47;;;0.80;;
41984;SDS011;28319;48.116;10.818;2023-04-02T07:48:09;0.60;;;0.60;;
41984;SDS011;28319;48.116;10.818;2023-04-02T07:53:16;0.67;;;0.67;;
41984;SDS011;28319;48.116;10.818;2023-04-02T07:58:30;1.43;;;1.30;;
41984;SDS011;28319;48.116;10.818;2023-04-02T08:03:33;1.07;;;1.03;;
41984;SDS011;28319;48.116;10.818;2023-04-02T08:08:35;1.23;;;1.13;;
41984;SDS011;28319;48.116;10.818;2023-04-02T08:13:39;0.97;;;0.87;;
41984;SDS011;28319;48.116;10.818;2023-04-02T08:18:41;0.87;;;0.87;;
41984;SDS011;28319;48.116;10.818;2023-04-02T08:23:43;1.13;;;0.80;;
41984;SDS011;28319;48.116;10.818;2023-04-02T08:28:47;1.30;;;0.73;;
41984;SDS011;28319;48.116;10.818;2023-04-02T08:33:49;1.37;;;1.00;;
41984;SDS011;28319;48.116;10.818;2023-04-02T08:38:53;1.67;;;1.20;;
41984;SDS011;28319;48.116;10.818;2023-04-02T08:43:59;1.00;;;0.90;;
41984;SDS011;28319;48.116;10.818;2023-04-02T08:49:19;0.87;;;0.60;;
41984;SDS011;28319;48.116;10.818;2023-04-02T08:54:27;0.77;;;0.77;;
41984;SDS011;28319;48.116;10.818;2023-04-02T08:59:35;0.60;;;0.60;;
41984;SDS011;28319;48.116;10.818;2023-04-02T09:04:39;0.60;;;0.60;;
41984;SDS011;28319;48.116;10.818;2023-04-02T09:09:43;3.23;;;0.90;;
41984;SDS011;28319;48.116;10.818;2023-04-02T09:14:52;0.90;;;0.70;;
41984;SDS011;28319;48.116;10.818;2023-04-02T09:20:02;0.83;;;0.83;;
41984;SDS011;28319;48.116;10.818;2023-04-02T09:25:17;1.87;;;0.80;;
41984;SDS011;28319;48.116;10.818;2023-04-02T09:30:26;1.07;;;0.83;;
41984;SDS011;28319;48.116;10.818;2023-04-02T09:35:52;0.90;;;0.90;;
41984;SDS011;28319;48.116;10.818;2023-04-02T09:40:57;2.33;;;1.10;;
41984;SDS011;28319;48.116;10.818;2023-04-02T09:46:03;2.17;;;1.30;;
41984;SDS011;28319;48.116;10.818;2023-04-02T09:51:12;1.53;;;1.00;;
41984;SDS011;28319;48.116;10.818;2023-04-02T09:56:16;1.63;;;1.23;;
41984;SDS011;28319;48.116;10.818;2023-04-02T10:01:28;0.70;;;0.70;;
41984;SDS011;28319;48.116;10.818;2023-04-02T10:06:32;1.50;;;1.13;;
41984;SDS011;28319;48.116;10.818;2023-04-02T10:11:35;4.27;;;1.00;;
41984;SDS011;28319;48.116;10.818;2023-04-02T10:16:40;0.80;;;0.80;;
41984;SDS011;28319;48.116;10.818;2023-04-02T10:21:47;0.90;;;0.90;;
41984;SDS011;28319;48.116;10.818;2023-04-02T10:26:54;0.60;;;0.60;;
41984;SDS011;28319;48.116;10.818;2023-04-02T10:32:05;1.17;;;1.17;;
41984;SDS011;28319;48.116;10.818;2023-04-02T10:37:19;0.90;;;0.90;;
41984;SDS011;28319;48.116;10.818;2023-04-02T10:42:47;1.40;;;1.30;;
41984;SDS011;28319;48.116;10.818;2023-04-02T10:47:59;1.27;;;1.07;;
41984;SDS011;28319;48.116;10.818;2023-04-02T10:53:10;2.93;;;0.90;;
41984;SDS011;28319;48.116;10.818;2023-04-02T10:58:19;1.00;;;1.00;;
41984;SDS011;28319;48.116;10.818;2023-04-02T11:03:29;0.60;;;0.60;;
41984;SDS011;28319;48.116;10.818;2023-04-02T11:08:38;2.23;;;1.70;;
41984;SDS011;28319;48.116;10.818;2023-04-02T11:13:45;0.80;;;0.80;;
41984;SDS011;28319;48.116;10.818;2023-04-02T11:24:36;0.50;;;0.50;;
41984;SDS011;28319;48.116;10.818;2023-04-02T11:29:43;0.80;;;0.80;;
41984;SDS011;28319;48.116;10.818;2023-04-02T11:34:58;0.60;;;0.60;;
41984;SDS011;28319;48.116;10.818;2023-04-02T11:40:47;1.67;;;0.40;;
41984;SDS011;28319;48.116;10.818;2023-04-02T11:45:53;0.50;;;0.50;;
41984;SDS011;28319;48.116;10.818;2023-04-02T11:51:00;0.50;;;0.50;;
41984;SDS011;28319;48.116;10.818;2023-04-02T11:56:26;0.60;;;0.60;;
41984;SDS011;28319;48.116;10.818;2023-04-02T12:07:16;1.20;;;1.10;;
41984;SDS011;28319;48.116;10.818;2023-04-02T12:12:31;0.97;;;0.83;;
41984;SDS011;28319;48.116;10.818;2023-04-02T12:17:36;0.80;;;0.43;;
41984;SDS011;28319;48.116;10.818;2023-04-02T12:22:46;1.80;;;1.70;;
41984;SDS011;28319;48.116;10.818;2023-04-02T12:28:01;2.13;;;0.87;;
41984;SDS011;28319;48.116;10.818;2023-04-02T12:33:25;1.00;;;1.00;;
41984;SDS011;28319;48.116;10.818;2023-04-02T12:38:32;0.70;;;0.70;;
41984;SDS011;28319;48.116;10.818;2023-04-02T12:43:37;0.80;;;0.80;;
41984;SDS011;28319;48.116;10.818;2023-04-02T12:48:40;1.43;;;0.70;;
41984;SDS011;28319;48.116;10.818;2023-04-02T12:53:47;1.80;;;1.70;;
41984;SDS011;28319;48.116;10.818;2023-04-02T12:58:51;0.50;;;0.50;;
41984;SDS011;28319;48.116;10.818;2023-04-02T13:03:58;0.90;;;0.90;;
41984;SDS011;28319;48.116;10.818;2023-04-02T13:14:29;0.73;;;0.73;;
41984;SDS011;28319;48.116;10.818;2023-04-02T13:19:32;0.60;;;0.60;;
41984;SDS011;28319;48.116;10.818;2023-04-02T13:24:36;0.60;;;0.60;;
41984;SDS011;28319;48.116;10.818;2023-04-02T13:29:40;0.70;;;0.70;;
41984;SDS011;28319;48.116;10.818;2023-04-02T13:34:42;1.63;;;1.40;;
41984;SDS011;28319;48.116;10.818;2023-04-02T13:39:45;1.03;;;0.67;;
41984;SDS011;28319;48.116;10.818;2023-04-02T13:44:48;0.40;;;0.40;;
41984;SDS011;28319;48.116;10.818;2023-04-02T13:49:50;0.70;;;0.70;;
41984;SDS011;28319;48.116;10.818;2023-04-02T13:54:55;0.30;;;0.30;;
41984;SDS011;28319;48.116;10.818;2023-04-02T13:59:59;3.07;;;2.30;;
41984;SDS011;28319;48.116;10.818;2023-04-02T14:05:04;3.57;;;2.60;;
41984;SDS011;28319;48.116;10.818;2023-04-02T14:10:21;1.10;;;1.00;;
41984;SDS011;28319;48.116;10.818;2023-04-02T14:15:35;2.37;;;0.70;;
41984;SDS011;28319;48.116;10.818;2023-04-02T14:20:49;3.23;;;1.60;;
41984;SDS011;28319;48.116;10.818;2023-04-02T14:26:03;1.30;;;1.20;;
41984;SDS011;28319;48.116;10.818;2023-04-02T14:31:15;1.07;;;1.00;;
41984;SDS011;28319;48.116;10.818;2023-04-02T14:36:27;1.07;;;1.07;;
41984;SDS011;28319;48.116;10.818;2023-04-02T14:41:38;1.20;;;1.20;;
41984;SDS011;28319;48.116;10.818;2023-04-02T14:46:45;0.40;;;0.40;;
41984;SDS011;28319;48.116;10.818;2023-04-02T14:51:48;2.33;;;0.70;;
41984;SDS011;28319;48.116;10.818;2023-04-02T14:56:59;0.80;;;0.80;;
41984;SDS011;28319;48.116;10.818;2023-04-02T15:02:07;0.63;;;0.50;;
41984;SDS011;28319;48.116;10.818;2023-04-02T15:07:16;0.70;;;0.70;;
41984;SDS011;28319;48.116;10.818;2023-04-02T15:12:24;0.50;;;0.50;;
41984;SDS011;28319;48.116;10.818;2023-04-02T15:17:32;0.60;;;0.60;;
41984;SDS011;28319;48.116;10.818;2023-04-02T15:22:36;0.83;;;0.83;;
41984;SDS011;28319;48.116;10.818;2023-04-02T15:27:50;1.10;;;1.10;;
41984;SDS011;28319;48.116;10.818;2023-04-02T15:38:30;1.10;;;1.10;;
41984;SDS011;28319;48.116;10.818;2023-04-02T15:43:40;1.00;;;1.00;;
41984;SDS011;28319;48.116;10.818;2023-04-02T15:54:10;0.70;;;0.70;;
41984;SDS011;28319;48.116;10.818;2023-04-02T15:59:37;1.20;;;1.13;;
41984;SDS011;28319;48.116;10.818;2023-04-02T16:04:50;1.60;;;1.50;;
41984;SDS011;28319;48.116;10.818;2023-04-02T16:10:01;4.10;;;3.53;;
41984;SDS011;28319;48.116;10.818;2023-04-02T16:15:13;1.77;;;1.60;;
41984;SDS011;28319;48.116;10.818;2023-04-02T16:20:19;4.60;;;2.10;;
41984;SDS011;28319;48.116;10.818;2023-04-02T16:25:24;3.77;;;3.03;;
41984;SDS011;28319;48.116;10.818;2023-04-02T16:30:43;3.23;;;2.50;;
41984;SDS011;28319;48.116;10.818;2023-04-02T16:36:01;3.03;;;2.80;;
41984;SDS011;28319;48.116;10.818;2023-04-02T16:41:14;3.30;;;3.00;;
41984;SDS011;28319;48.116;10.818;2023-04-02T16:46:25;4.70;;;3.70;;
41984;SDS011;28319;48.116;10.818;2023-04-02T16:51:39;1.80;;;1.70;;
41984;SDS011;28319;48.116;10.818;2023-04-02T16:56:47;3.20;;;3.00;;
41984;SDS011;28319;48.116;10.818;2023-04-02T17:02:01;2.50;;;2.40;;
41984;SDS011;28319;48.116;10.818;2023-04-02T17:07:15;2.70;;;2.50;;
41984;SDS011;28319;48.116;10.818;2023-04-02T17:12:30;3.17;;;2.87;;
41984;SDS011;28319;48.116;10.818;2023-04-02T17:17:49;4.83;;;3.70;;
41984;SDS011;28319;48.116;10.818;2023-04-02T17:22:54;1.20;;;1.13;;
41984;SDS011;28319;48.116;10.818;2023-04-02T17:27:57;1.87;;;1.77;;
41984;SDS011;28319;48.116;10.818;2023-04-02T17:33:00;1.93;;;1.83;;
41984;SDS011;28319;48.116;10.818;2023-04-02T17:38:07;2.23;;;2.03;;
41984;SDS011;28319;48.116;10.818;2023-04-02T17:43:22;2.60;;;1.60;;
41984;SDS011;28319;48.116;10.818;2023-04-02T17:48:40;2.23;;;2.13;;
41984;SDS011;28319;48.116;10.818;2023-04-02T17:53:52;1.77;;;1.67;;
41984;SDS011;28319;48.116;10.818;2023-04-02T17:59:08;4.27;;;3.13;;
41984;SDS011;28319;48.116;10.818;2023-04-02T18:04:25;3.63;;;2.83;;
41984;SDS011;28319;48.116;10.818;2023-04-02T18:09:36;16.00;;;8.57;;
41984;SDS011;28319;48.116;10.818;2023-04-02T18:14:48;12.53;;;7.73;;
41984;SDS011;28319;48.116;10.818;2023-04-02T18:20:08;3.43;;;3.13;;
41984;SDS011;28319;48.116;10.818;2023-04-02T18:30:52;2.53;;;2.43;;
41984;SDS011;28319;48.116;10.818;2023-04-02T18:36:02;2.30;;;2.20;;
41984;SDS011;28319;48.116;10.818;2023-04-02T18:41:15;1.80;;;1.70;;
41984;SDS011;28319;48.116;10.818;2023-04-02T18:46:28;2.23;;;2.10;;
41984;SDS011;28319;48.116;10.818;2023-04-02T18:51:40;2.23;;;2.13;;
41984;SDS011;28319;48.116;10.818;2023-04-02T18:56:42;3.20;;;2.53;;
41984;SDS011;28319;48.116;10.818;2023-04-02T19:01:47;2.97;;;2.77;;
41984;SDS011;28319;48.116;10.818;2023-04-02T19:06:53;3.03;;;2.77;;
41984;SDS011;28319;48.116;10.818;2023-04-02T19:12:05;6.37;;;3.77;;
41984;SDS011;28319;48.116;10.818;2023-04-02T19:17:13;3.73;;;3.43;;
41984;SDS011;28319;48.116;10.818;2023-04-02T19:22:27;3.77;;;3.47;;
41984;SDS011;28319;48.116;10.818;2023-04-02T19:27:40;4.17;;;3.77;;
41984;SDS011;28319;48.116;10.818;2023-04-02T19:32:53;4.00;;;3.70;;
41984;SDS011;28319;48.116;10.818;2023-04-02T19:38:07;3.93;;;3.63;;
41984;SDS011;28319;48.116;10.818;2023-04-02T19:43:18;4.27;;;3.90;;
41984;SDS011;28319;48.116;10.818;2023-04-02T19:48:21;5.70;;;5.10;;
41984;SDS011;28319;48.116;10.818;2023-04-02T19:53:28;4.87;;;4.47;;
41984;SDS011;28319;48.116;10.818;2023-04-02T19:58:31;4.57;;;4.17;;
41984;SDS011;28319;48.116;10.818;2023-04-02T20:03:35;3.70;;;3.40;;
41984;SDS011;28319;48.116;10.818;2023-04-02T20:08:38;3.33;;;3.03;;
41984;SDS011;28319;48.116;10.818;2023-04-02T20:13:40;3.40;;;3.10;;
41984;SDS011;28319;48.116;10.818;2023-04-02T20:18:42;3.50;;;3.20;;
41984;SDS011;28319;48.116;10.818;2023-04-02T20:23:47;2.83;;;2.63;;
41984;SDS011;28319;48.116;10.818;2023-04-02T20:28:52;2.63;;;2.43;;
41984;SDS011;28319;48.116;10.818;2023-04-02T20:33:55;2.23;;;2.03;;
41984;SDS011;28319;48.116;10.818;2023-04-02T20:39:00;2.10;;;2.00;;
41984;SDS011;28319;48.116;10.818;2023-04-02T20:44:02;2.10;;;2.00;;
41984;SDS011;28319;48.116;10.818;2023-04-02T20:49:04;2.40;;;2.30;;
41984;SDS011;28319;48.116;10.818;2023-04-02T20:54:08;2.60;;;2.40;;
41984;SDS011;28319;48.116;10.818;2023-04-02T20:59:10;2.60;;;2.40;;
41984;SDS011;28319;48.116;10.818;2023-04-02T21:04:12;2.57;;;2.37;;
41984;SDS011;28319;48.116;10.818;2023-04-02T21:09:16;2.80;;;2.60;;
41984;SDS011;28319;48.116;10.818;2023-04-02T21:14:20;2.67;;;2.47;;
41984;SDS011;28319;48.116;10.818;2023-04-02T21:19:22;2.90;;;2.70;;
41984;SDS011;28319;48.116;10.818;2023-04-02T21:24:26;2.90;;;2.70;;
41984;SDS011;28319;48.116;10.818;2023-04-02T21:29:28;2.70;;;2.50;;
41984;SDS011;28319;48.116;10.818;2023-04-02T21:34:30;3.00;;;2.80;;
41984;SDS011;28319;48.116;10.818;2023-04-02T21:39:34;3.00;;;2.80;;
41984;SDS011;28319;48.116;10.818;2023-04-02T21:44:36;2.90;;;2.70;;
41984;SDS011;28319;48.116;10.818;2023-04-02T21:49:39;5.20;;;3.13;;
41984;SDS011;28319;48.116;10.818;2023-04-02T21:54:42;3.33;;;3.03;;
41984;SDS011;28319;48.116;10.818;2023-04-02T21:59:47;3.10;;;2.80;;
41984;SDS011;28319;48.116;10.818;2023-04-02T22:04:50;3.23;;;2.93;;
41984;SDS011;28319;48.116;10.818;2023-04-02T22:09:54;3.57;;;3.27;;
41984;SDS011;28319;48.116;10.818;2023-04-02T22:14:58;3.23;;;3.00;;
41984;SDS011;28319;48.116;10.818;2023-04-02T22:20:01;4.40;;;3.73;;
41984;SDS011;28319;48.116;10.818;2023-04-02T22:25:08;4.37;;;3.23;;
41984;SDS011;28319;48.116;10.818;2023-04-02T22:30:11;5.17;;;3.30;;
41984;SDS011;28319;48.116;10.818;2023-04-02T22:35:13;3.77;;;3.20;;
41984;SDS011;28319;48.116;10.818;2023-04-02T22:40:18;3.73;;;3.27;;
41984;SDS011;28319;48.116;10.818;2023-04-02T22:45:20;3.20;;;3.00;;
41984;SDS011;28319;48.116;10.818;2023-04-02T22:50:22;3.20;;;2.90;;
41984;SDS011;28319;48.116;10.818;2023-04-02T22:55:26;3.70;;;3.27;;
41984;SDS011;28319;48.116;10.818;2023-04-02T23:00:28;3.47;;;3.20;;
41984;SDS011;28319;48.116;10.818;2023-04-02T23:05:31;3.93;;;2.83;;
41984;SDS011;28319;48.116;10.818;2023-04-02T23:10:36;3.40;;;3.10;;
41984;SDS011;28319;48.116;10.818;2023-04-02T23:15:38;3.10;;;2.90;;
41984;SDS011;28319;48.116;10.818;2023-04-02T23:20:43;3.83;;;3.10;;
41984;SDS011;28319;48.116;10.818;2023-04-02T23:25:47;4.23;;;3.57;;
41984;SDS011;28319;48.116;10.818;2023-04-02T23:30:49;3.40;;;3.10;;
41984;SDS011;28319;48.116;10.818;2023-04-02T23:35:51;2.93;;;2.73;;
41984;SDS011;28319;48.116;10.818;2023-04-02T23:40:54;3.33;;;3.07;;
41984;SDS011;28319;48.116;10.818;2023-04-02T23:45:56;3.10;;;2.77;;
41984;SDS011;28319;48.116;10.818;2023-04-02T23:51:00;4.23;;;3.77;;
41984;SDS011;28319;48.116;10.818;2023-04-02T23:56:04;3.77;;;3.00;;
